Aviation Digital Data Service (ADDS)

Output produced by METARs form (2152 UTC 24 March 2019)
found at http://www.aviationweather.gov/metar/data/
 
BKPR 242130Z VRB01KT CAVOK 05/M04 Q1018 NOSIG RMK 17010095
TAF BKPR 241730Z 2418/2518 VRB03KT CAVOK 
     BECMG 2509/2511 24012KT